Terminal Aerodrome Forecast
Issued by NWS Portland, ME

Home | Current Version | Previous Version | Text Only | Print | Product List | Glossary On
Versions: 1 2 3 4 5 6 7 8 9 10 11 12 13 14 15 16 17 18 19
000
FTUS41 KGYX 280533
TAFCON
TAF
KCON 280533Z 2806/2906 18009KT 6SM BR SCT015 OVC025
     FM281300 22011KT P6SM SCT050
     FM281900 27010G17KT P6SM BKN050 PROB30 2820/2822 P6SM -TSRA
      BKN050CB
     FM290000 31006KT P6SM SCT120=

USA.gov is the U.S. government's official web portal to all federal, state and local government web resources and services.